sensor_id;sensor_type;location;lat;lon;timestamp;temperature;humidity
29539;DHT22;16482;51.046;4.498;2023-07-31T00:00:08;25.40;52.00
29539;DHT22;16482;51.046;4.498;2023-07-31T00:02:34;25.50;52.00
29539;DHT22;16482;51.046;4.498;2023-07-31T00:05:01;25.40;51.90
29539;DHT22;16482;51.046;4.498;2023-07-31T00:07:27;25.50;51.80
29539;DHT22;16482;51.046;4.498;2023-07-31T00:09:53;25.40;51.80
29539;DHT22;16482;51.046;4.498;2023-07-31T00:12:20;25.40;51.80
29539;DHT22;16482;51.046;4.498;2023-07-31T00:14:46;25.40;51.70
29539;DHT22;16482;51.046;4.498;2023-07-31T00:17:12;25.40;52.30
29539;DHT22;16482;51.046;4.498;2023-07-31T00:19:38;25.40;51.80
29539;DHT22;16482;51.046;4.498;2023-07-31T00:22:04;25.40;51.70
29539;DHT22;16482;51.046;4.498;2023-07-31T00:24:30;25.40;51.60
29539;DHT22;16482;51.046;4.498;2023-07-31T00:26:56;25.40;51.60
29539;DHT22;16482;51.046;4.498;2023-07-31T00:29:22;25.40;51.60
29539;DHT22;16482;51.046;4.498;2023-07-31T00:31:48;25.40;51.60
29539;DHT22;16482;51.046;4.498;2023-07-31T00:34:14;25.40;51.60
29539;DHT22;16482;51.046;4.498;2023-07-31T00:36:40;25.40;51.50
29539;DHT22;16482;51.046;4.498;2023-07-31T00:39:06;25.40;51.50
29539;DHT22;16482;51.046;4.498;2023-07-31T00:41:32;25.50;51.60
29539;DHT22;16482;51.046;4.498;2023-07-31T00:43:58;25.40;51.50
29539;DHT22;16482;51.046;4.498;2023-07-31T00:46:24;25.40;51.50
29539;DHT22;16482;51.046;4.498;2023-07-31T00:48:49;25.50;51.50
29539;DHT22;16482;51.046;4.498;2023-07-31T00:51:16;25.40;51.40
29539;DHT22;16482;51.046;4.498;2023-07-31T00:53:43;25.50;51.50
29539;DHT22;16482;51.046;4.498;2023-07-31T00:56:10;25.50;51.50
29539;DHT22;16482;51.046;4.498;2023-07-31T00:58:36;25.40;51.30
29539;DHT22;16482;51.046;4.498;2023-07-31T01:01:02;25.40;51.30
29539;DHT22;16482;51.046;4.498;2023-07-31T01:03:28;25.50;51.40
29539;DHT22;16482;51.046;4.498;2023-07-31T01:09:11;25.50;51.20
29539;DHT22;16482;51.046;4.498;2023-07-31T01:11:57;25.40;51.20
29539;DHT22;16482;51.046;4.498;2023-07-31T01:14:25;25.40;51.20
29539;DHT22;16482;51.046;4.498;2023-07-31T01:16:56;25.40;51.40
29539;DHT22;16482;51.046;4.498;2023-07-31T01:19:24;25.40;51.40
29539;DHT22;16482;51.046;4.498;2023-07-31T01:21:56;25.40;51.30
29539;DHT22;16482;51.046;4.498;2023-07-31T01:27:17;25.40;51.20
29539;DHT22;16482;51.046;4.498;2023-07-31T01:29:51;25.40;51.40
29539;DHT22;16482;51.046;4.498;2023-07-31T01:32:19;25.40;51.30
29539;DHT22;16482;51.046;4.498;2023-07-31T01:34:47;25.40;51.40
29539;DHT22;16482;51.046;4.498;2023-07-31T01:37:13;25.40;51.50
29539;DHT22;16482;51.046;4.498;2023-07-31T01:39:39;25.40;51.40
29539;DHT22;16482;51.046;4.498;2023-07-31T01:42:05;25.40;51.50
29539;DHT22;16482;51.046;4.498;2023-07-31T01:44:31;25.40;51.50
29539;DHT22;16482;51.046;4.498;2023-07-31T01:46:58;25.40;51.50
29539;DHT22;16482;51.046;4.498;2023-07-31T01:49:25;25.40;51.50
29539;DHT22;16482;51.046;4.498;2023-07-31T01:51:54;25.40;51.60
29539;DHT22;16482;51.046;4.498;2023-07-31T01:54:22;25.40;51.50
29539;DHT22;16482;51.046;4.498;2023-07-31T01:56:56;25.40;51.60
29539;DHT22;16482;51.046;4.498;2023-07-31T01:59:22;25.40;51.50
29539;DHT22;16482;51.046;4.498;2023-07-31T02:01:48;25.40;51.80
29539;DHT22;16482;51.046;4.498;2023-07-31T02:04:14;25.40;51.60
29539;DHT22;16482;51.046;4.498;2023-07-31T02:06:40;25.40;51.60
29539;DHT22;16482;51.046;4.498;2023-07-31T02:09:06;25.40;51.60
29539;DHT22;16482;51.046;4.498;2023-07-31T02:11:32;25.40;51.60
29539;DHT22;16482;51.046;4.498;2023-07-31T02:13:58;25.40;51.60
29539;DHT22;16482;51.046;4.498;2023-07-31T02:16:24;25.30;51.60
29539;DHT22;16482;51.046;4.498;2023-07-31T02:18:50;25.40;51.70
29539;DHT22;16482;51.046;4.498;2023-07-31T02:21:16;25.40;51.70
29539;DHT22;16482;51.046;4.498;2023-07-31T02:23:42;25.40;51.80
29539;DHT22;16482;51.046;4.498;2023-07-31T02:26:08;25.40;51.80
29539;DHT22;16482;51.046;4.498;2023-07-31T02:28:33;25.30;51.70
29539;DHT22;16482;51.046;4.498;2023-07-31T02:31:02;25.40;51.80
29539;DHT22;16482;51.046;4.498;2023-07-31T02:33:28;25.40;51.80
29539;DHT22;16482;51.046;4.498;2023-07-31T02:35:54;25.40;51.80
29539;DHT22;16482;51.046;4.498;2023-07-31T02:38:20;25.30;51.70
29539;DHT22;16482;51.046;4.498;2023-07-31T02:40:46;25.40;51.80
29539;DHT22;16482;51.046;4.498;2023-07-31T02:43:13;25.40;51.80
29539;DHT22;16482;51.046;4.498;2023-07-31T02:45:39;25.40;51.80
29539;DHT22;16482;51.046;4.498;2023-07-31T02:48:05;25.40;51.80
29539;DHT22;16482;51.046;4.498;2023-07-31T02:50:31;25.40;51.80
29539;DHT22;16482;51.046;4.498;2023-07-31T02:52:57;25.40;51.80
29539;DHT22;16482;51.046;4.498;2023-07-31T02:55:23;25.40;51.80
29539;DHT22;16482;51.046;4.498;2023-07-31T02:57:49;25.40;51.80
29539;DHT22;16482;51.046;4.498;2023-07-31T03:00:16;25.40;51.90
29539;DHT22;16482;51.046;4.498;2023-07-31T03:02:44;25.40;51.80
29539;DHT22;16482;51.046;4.498;2023-07-31T03:05:12;25.40;51.80
29539;DHT22;16482;51.046;4.498;2023-07-31T03:07:43;25.40;51.80
29539;DHT22;16482;51.046;4.498;2023-07-31T03:10:11;25.40;51.80
29539;DHT22;16482;51.046;4.498;2023-07-31T03:12:38;25.40;51.80
29539;DHT22;16482;51.046;4.498;2023-07-31T03:15:04;25.40;51.90
29539;DHT22;16482;51.046;4.498;2023-07-31T03:17:30;25.40;51.80
29539;DHT22;16482;51.046;4.498;2023-07-31T03:19:56;25.40;51.90
29539;DHT22;16482;51.046;4.498;2023-07-31T03:22:22;25.40;51.90
29539;DHT22;16482;51.046;4.498;2023-07-31T03:24:47;25.40;51.90
29539;DHT22;16482;51.046;4.498;2023-07-31T03:27:13;25.40;51.90
29539;DHT22;16482;51.046;4.498;2023-07-31T03:29:39;25.40;51.90
29539;DHT22;16482;51.046;4.498;2023-07-31T03:32:05;25.40;51.90
29539;DHT22;16482;51.046;4.498;2023-07-31T03:34:31;25.40;51.90
29539;DHT22;16482;51.046;4.498;2023-07-31T03:36:58;25.40;52.00
29539;DHT22;16482;51.046;4.498;2023-07-31T03:39:24;25.40;52.00
29539;DHT22;16482;51.046;4.498;2023-07-31T03:41:50;25.40;52.10
29539;DHT22;16482;51.046;4.498;2023-07-31T03:44:16;25.40;52.10
29539;DHT22;16482;51.046;4.498;2023-07-31T03:46:42;25.40;52.20
29539;DHT22;16482;51.046;4.498;2023-07-31T03:49:08;25.40;52.30
29539;DHT22;16482;51.046;4.498;2023-07-31T03:51:34;25.40;52.20
29539;DHT22;16482;51.046;4.498;2023-07-31T03:54:00;25.40;52.20
29539;DHT22;16482;51.046;4.498;2023-07-31T03:56:26;25.40;52.20
29539;DHT22;16482;51.046;4.498;2023-07-31T03:58:52;25.40;52.20
29539;DHT22;16482;51.046;4.498;2023-07-31T04:01:19;25.40;52.30
29539;DHT22;16482;51.046;4.498;2023-07-31T04:03:45;25.40;52.40
29539;DHT22;16482;51.046;4.498;2023-07-31T04:06:11;25.40;52.40
29539;DHT22;16482;51.046;4.498;2023-07-31T04:08:37;25.40;52.40
29539;DHT22;16482;51.046;4.498;2023-07-31T04:11:03;25.30;52.40
29539;DHT22;16482;51.046;4.498;2023-07-31T04:13:32;25.30;52.40
29539;DHT22;16482;51.046;4.498;2023-07-31T04:15:59;25.30;52.40
29539;DHT22;16482;51.046;4.498;2023-07-31T04:18:27;25.40;52.50
29539;DHT22;16482;51.046;4.498;2023-07-31T04:21:02;25.40;52.50
29539;DHT22;16482;51.046;4.498;2023-07-31T04:23:28;25.40;52.60
29539;DHT22;16482;51.046;4.498;2023-07-31T04:25:54;25.40;52.70
29539;DHT22;16482;51.046;4.498;2023-07-31T04:28:20;25.30;52.60
29539;DHT22;16482;51.046;4.498;2023-07-31T04:30:46;25.30;52.70
29539;DHT22;16482;51.046;4.498;2023-07-31T04:33:12;25.30;52.70
29539;DHT22;16482;51.046;4.498;2023-07-31T04:35:38;25.40;52.80
29539;DHT22;16482;51.046;4.498;2023-07-31T04:38:04;25.40;52.80
29539;DHT22;16482;51.046;4.498;2023-07-31T04:40:30;25.40;52.80
29539;DHT22;16482;51.046;4.498;2023-07-31T04:42:56;25.40;52.90
29539;DHT22;16482;51.046;4.498;2023-07-31T04:45:22;25.40;52.90
29539;DHT22;16482;51.046;4.498;2023-07-31T04:47:47;25.40;52.90
29539;DHT22;16482;51.046;4.498;2023-07-31T04:50:13;25.40;53.00
29539;DHT22;16482;51.046;4.498;2023-07-31T04:52:42;25.40;53.00
29539;DHT22;16482;51.046;4.498;2023-07-31T04:55:12;25.40;52.90
29539;DHT22;16482;51.046;4.498;2023-07-31T04:57:38;25.40;53.00
29539;DHT22;16482;51.046;4.498;2023-07-31T05:00:05;25.40;53.00
29539;DHT22;16482;51.046;4.498;2023-07-31T05:02:31;25.40;53.00
29539;DHT22;16482;51.046;4.498;2023-07-31T05:04:57;25.40;53.00
29539;DHT22;16482;51.046;4.498;2023-07-31T05:07:23;25.40;53.00
29539;DHT22;16482;51.046;4.498;2023-07-31T05:09:49;25.40;53.00
29539;DHT22;16482;51.046;4.498;2023-07-31T05:12:15;25.40;53.00
29539;DHT22;16482;51.046;4.498;2023-07-31T05:14:41;25.30;53.00
29539;DHT22;16482;51.046;4.498;2023-07-31T05:17:07;25.40;53.00
29539;DHT22;16482;51.046;4.498;2023-07-31T05:19:33;25.40;53.10
29539;DHT22;16482;51.046;4.498;2023-07-31T05:21:58;25.30;53.00
29539;DHT22;16482;51.046;4.498;2023-07-31T05:24:24;25.40;53.10
29539;DHT22;16482;51.046;4.498;2023-07-31T05:26:53;25.40;53.10
29539;DHT22;16482;51.046;4.498;2023-07-31T05:29:19;25.40;53.10
29539;DHT22;16482;51.046;4.498;2023-07-31T05:31:45;25.30;53.10
29539;DHT22;16482;51.046;4.498;2023-07-31T05:34:10;25.40;53.20
29539;DHT22;16482;51.046;4.498;2023-07-31T05:36:36;25.40;53.20
29539;DHT22;16482;51.046;4.498;2023-07-31T05:39:02;25.40;53.20
29539;DHT22;16482;51.046;4.498;2023-07-31T05:41:32;25.40;53.30
29539;DHT22;16482;51.046;4.498;2023-07-31T05:43:58;25.40;53.30
29539;DHT22;16482;51.046;4.498;2023-07-31T05:46:24;25.40;53.30
29539;DHT22;16482;51.046;4.498;2023-07-31T05:48:50;25.40;53.30
29539;DHT22;16482;51.046;4.498;2023-07-31T05:51:15;25.40;53.30
29539;DHT22;16482;51.046;4.498;2023-07-31T05:53:42;25.40;53.30
29539;DHT22;16482;51.046;4.498;2023-07-31T05:56:07;25.30;53.20
29539;DHT22;16482;51.046;4.498;2023-07-31T05:58:36;25.40;53.90
29539;DHT22;16482;51.046;4.498;2023-07-31T06:01:01;25.30;53.20
29539;DHT22;16482;51.046;4.498;2023-07-31T06:03:33;25.40;53.40
29539;DHT22;16482;51.046;4.498;2023-07-31T06:06:04;25.40;53.40
29539;DHT22;16482;51.046;4.498;2023-07-31T06:08:33;25.40;53.40
29539;DHT22;16482;51.046;4.498;2023-07-31T06:10:59;25.30;53.40
29539;DHT22;16482;51.046;4.498;2023-07-31T06:13:34;25.30;53.50
29539;DHT22;16482;51.046;4.498;2023-07-31T06:16:02;25.30;53.40
29539;DHT22;16482;51.046;4.498;2023-07-31T06:18:38;25.40;53.50
29539;DHT22;16482;51.046;4.498;2023-07-31T06:21:04;25.40;53.50
29539;DHT22;16482;51.046;4.498;2023-07-31T06:23:32;25.40;53.50
29539;DHT22;16482;51.046;4.498;2023-07-31T06:26:03;25.40;53.50
29539;DHT22;16482;51.046;4.498;2023-07-31T06:28:31;25.30;53.40
29539;DHT22;16482;51.046;4.498;2023-07-31T06:30:58;25.30;53.40
29539;DHT22;16482;51.046;4.498;2023-07-31T06:33:24;25.30;53.30
29539;DHT22;16482;51.046;4.498;2023-07-31T06:35:50;25.30;53.30
29539;DHT22;16482;51.046;4.498;2023-07-31T06:38:21;25.40;53.40
29539;DHT22;16482;51.046;4.498;2023-07-31T06:40:47;25.40;53.30
29539;DHT22;16482;51.046;4.498;2023-07-31T06:43:14;25.40;53.40
29539;DHT22;16482;51.046;4.498;2023-07-31T06:45:40;25.30;53.30
29539;DHT22;16482;51.046;4.498;2023-07-31T06:48:06;25.30;53.40
29539;DHT22;16482;51.046;4.498;2023-07-31T06:50:32;25.30;53.30
29539;DHT22;16482;51.046;4.498;2023-07-31T06:52:58;25.40;53.30
29539;DHT22;16482;51.046;4.498;2023-07-31T06:55:25;25.30;53.20
29539;DHT22;16482;51.046;4.498;2023-07-31T06:57:52;25.40;53.50
29539;DHT22;16482;51.046;4.498;2023-07-31T07:00:20;25.40;53.30
29539;DHT22;16482;51.046;4.498;2023-07-31T07:02:46;25.30;53.20
29539;DHT22;16482;51.046;4.498;2023-07-31T07:05:16;25.40;53.20
29539;DHT22;16482;51.046;4.498;2023-07-31T07:07:45;25.40;53.20
29539;DHT22;16482;51.046;4.498;2023-07-31T07:10:13;25.40;53.20
29539;DHT22;16482;51.046;4.498;2023-07-31T07:12:39;25.40;53.20
29539;DHT22;16482;51.046;4.498;2023-07-31T07:15:08;25.40;53.20
29539;DHT22;16482;51.046;4.498;2023-07-31T07:17:34;25.40;53.20
29539;DHT22;16482;51.046;4.498;2023-07-31T07:20:00;25.40;53.10
29539;DHT22;16482;51.046;4.498;2023-07-31T07:22:27;25.40;53.10
29539;DHT22;16482;51.046;4.498;2023-07-31T07:24:53;25.40;53.10
29539;DHT22;16482;51.046;4.498;2023-07-31T07:27:19;25.40;53.00
29539;DHT22;16482;51.046;4.498;2023-07-31T07:29:46;25.40;53.10
29539;DHT22;16482;51.046;4.498;2023-07-31T07:32:12;25.40;53.10
29539;DHT22;16482;51.046;4.498;2023-07-31T07:34:38;25.40;53.00
29539;DHT22;16482;51.046;4.498;2023-07-31T07:37:04;25.40;53.00
29539;DHT22;16482;51.046;4.498;2023-07-31T07:39:30;25.40;53.10
29539;DHT22;16482;51.046;4.498;2023-07-31T07:41:56;25.40;53.10
29539;DHT22;16482;51.046;4.498;2023-07-31T07:44:24;25.40;53.10
29539;DHT22;16482;51.046;4.498;2023-07-31T07:46:53;25.40;53.10
29539;DHT22;16482;51.046;4.498;2023-07-31T07:49:19;25.40;53.10
29539;DHT22;16482;51.046;4.498;2023-07-31T07:51:54;25.40;53.10
29539;DHT22;16482;51.046;4.498;2023-07-31T07:54:22;25.40;53.10
29539;DHT22;16482;51.046;4.498;2023-07-31T07:56:48;25.40;53.10
29539;DHT22;16482;51.046;4.498;2023-07-31T07:59:15;25.40;53.00
29539;DHT22;16482;51.046;4.498;2023-07-31T08:01:41;25.40;53.00
29539;DHT22;16482;51.046;4.498;2023-07-31T08:04:07;25.40;53.00
29539;DHT22;16482;51.046;4.498;2023-07-31T08:06:33;25.40;53.00
29539;DHT22;16482;51.046;4.498;2023-07-31T08:08:59;25.40;53.00
29539;DHT22;16482;51.046;4.498;2023-07-31T08:11:30;25.40;53.50
29539;DHT22;16482;51.046;4.498;2023-07-31T08:13:56;25.40;53.00
29539;DHT22;16482;51.046;4.498;2023-07-31T08:16:22;25.40;53.00
29539;DHT22;16482;51.046;4.498;2023-07-31T08:18:48;25.40;52.90
29539;DHT22;16482;51.046;4.498;2023-07-31T08:21:14;25.40;53.00
29539;DHT22;16482;51.046;4.498;2023-07-31T08:23:40;25.40;52.90
29539;DHT22;16482;51.046;4.498;2023-07-31T08:26:06;25.40;52.80
29539;DHT22;16482;51.046;4.498;2023-07-31T08:28:35;25.40;52.80
29539;DHT22;16482;51.046;4.498;2023-07-31T08:31:04;25.40;52.90
29539;DHT22;16482;51.046;4.498;2023-07-31T08:33:32;25.40;52.80
29539;DHT22;16482;51.046;4.498;2023-07-31T08:35:58;25.40;52.90
29539;DHT22;16482;51.046;4.498;2023-07-31T08:38:26;25.50;53.00
29539;DHT22;16482;51.046;4.498;2023-07-31T08:40:51;25.50;52.90
29539;DHT22;16482;51.046;4.498;2023-07-31T08:43:19;25.40;52.90
29539;DHT22;16482;51.046;4.498;2023-07-31T08:45:47;25.50;52.90
29539;DHT22;16482;51.046;4.498;2023-07-31T08:48:15;25.40;52.90
29539;DHT22;16482;51.046;4.498;2023-07-31T08:50:42;25.40;52.90
29539;DHT22;16482;51.046;4.498;2023-07-31T08:53:08;25.40;52.90
29539;DHT22;16482;51.046;4.498;2023-07-31T08:55:35;25.40;52.80
29539;DHT22;16482;51.046;4.498;2023-07-31T08:58:04;25.40;52.80
29539;DHT22;16482;51.046;4.498;2023-07-31T09:00:32;25.40;53.10
29539;DHT22;16482;51.046;4.498;2023-07-31T09:03:02;25.40;53.10
29539;DHT22;16482;51.046;4.498;2023-07-31T09:05:30;25.40;53.20
29539;DHT22;16482;51.046;4.498;2023-07-31T09:07:57;25.40;53.20
29539;DHT22;16482;51.046;4.498;2023-07-31T09:10:23;25.40;53.30
29539;DHT22;16482;51.046;4.498;2023-07-31T09:12:51;25.40;53.40
29539;DHT22;16482;51.046;4.498;2023-07-31T09:15:18;25.40;53.30
29539;DHT22;16482;51.046;4.498;2023-07-31T09:17:44;25.40;53.40
29539;DHT22;16482;51.046;4.498;2023-07-31T09:20:18;25.40;53.20
29539;DHT22;16482;51.046;4.498;2023-07-31T09:22:45;25.50;53.10
29539;DHT22;16482;51.046;4.498;2023-07-31T09:25:18;25.40;53.20
29539;DHT22;16482;51.046;4.498;2023-07-31T09:27:57;25.40;53.20
29539;DHT22;16482;51.046;4.498;2023-07-31T09:30:24;25.50;53.20
29539;DHT22;16482;51.046;4.498;2023-07-31T09:32:52;25.40;53.10
29539;DHT22;16482;51.046;4.498;2023-07-31T09:35:33;25.40;53.00
29539;DHT22;16482;51.046;4.498;2023-07-31T09:38:05;25.50;53.00
29539;DHT22;16482;51.046;4.498;2023-07-31T09:40:33;25.50;53.00
29539;DHT22;16482;51.046;4.498;2023-07-31T09:43:01;25.50;53.00
29539;DHT22;16482;51.046;4.498;2023-07-31T09:45:28;25.50;52.90
29539;DHT22;16482;51.046;4.498;2023-07-31T09:47:55;25.50;52.90
29539;DHT22;16482;51.046;4.498;2023-07-31T09:50:23;25.50;53.00
29539;DHT22;16482;51.046;4.498;2023-07-31T09:52:51;25.50;53.00
29539;DHT22;16482;51.046;4.498;2023-07-31T09:55:18;25.50;53.00
29539;DHT22;16482;51.046;4.498;2023-07-31T09:57:47;25.50;52.90
29539;DHT22;16482;51.046;4.498;2023-07-31T10:00:16;25.50;52.90
29539;DHT22;16482;51.046;4.498;2023-07-31T10:02:46;25.50;52.90
29539;DHT22;16482;51.046;4.498;2023-07-31T10:05:14;25.50;53.00
29539;DHT22;16482;51.046;4.498;2023-07-31T10:07:43;25.50;53.00
29539;DHT22;16482;51.046;4.498;2023-07-31T10:10:15;25.50;53.00
29539;DHT22;16482;51.046;4.498;2023-07-31T10:12:45;25.50;53.00
29539;DHT22;16482;51.046;4.498;2023-07-31T10:15:15;25.40;53.00
29539;DHT22;16482;51.046;4.498;2023-07-31T10:17:41;25.40;53.00
29539;DHT22;16482;51.046;4.498;2023-07-31T10:20:08;25.40;53.10
29539;DHT22;16482;51.046;4.498;2023-07-31T10:22:36;25.50;53.10
29539;DHT22;16482;51.046;4.498;2023-07-31T10:25:02;25.50;53.10
29539;DHT22;16482;51.046;4.498;2023-07-31T10:27:28;25.40;53.10
29539;DHT22;16482;51.046;4.498;2023-07-31T10:29:56;25.50;53.10
29539;DHT22;16482;51.046;4.498;2023-07-31T10:32:24;25.50;53.10
29539;DHT22;16482;51.046;4.498;2023-07-31T10:34:51;25.50;53.10
29539;DHT22;16482;51.046;4.498;2023-07-31T10:42:48;25.60;53.20
29539;DHT22;16482;51.046;4.498;2023-07-31T10:45:33;25.50;53.10
29539;DHT22;16482;51.046;4.498;2023-07-31T10:48:06;25.50;53.20
29539;DHT22;16482;51.046;4.498;2023-07-31T10:50:38;25.60;53.10
29539;DHT22;16482;51.046;4.498;2023-07-31T10:53:04;25.60;53.10
29539;DHT22;16482;51.046;4.498;2023-07-31T10:55:42;25.60;53.10
29539;DHT22;16482;51.046;4.498;2023-07-31T10:58:13;25.60;53.20
29539;DHT22;16482;51.046;4.498;2023-07-31T11:00:43;25.60;53.30
29539;DHT22;16482;51.046;4.498;2023-07-31T11:03:17;25.60;53.30
29539;DHT22;16482;51.046;4.498;2023-07-31T11:08:26;25.70;53.40
29539;DHT22;16482;51.046;4.498;2023-07-31T11:11:07;25.70;53.50
29539;DHT22;16482;51.046;4.498;2023-07-31T11:13:48;25.70;53.50
29539;DHT22;16482;51.046;4.498;2023-07-31T11:16:20;25.70;53.50
29539;DHT22;16482;51.046;4.498;2023-07-31T11:18:47;25.70;53.50
29539;DHT22;16482;51.046;4.498;2023-07-31T11:21:15;25.60;53.40
29539;DHT22;16482;51.046;4.498;2023-07-31T11:23:45;25.70;53.40
29539;DHT22;16482;51.046;4.498;2023-07-31T11:26:12;25.80;53.40
29539;DHT22;16482;51.046;4.498;2023-07-31T11:28:38;25.80;53.40
29539;DHT22;16482;51.046;4.498;2023-07-31T11:31:04;25.80;53.60
29539;DHT22;16482;51.046;4.498;2023-07-31T11:33:30;25.70;53.70
29539;DHT22;16482;51.046;4.498;2023-07-31T11:35:59;25.80;53.90
29539;DHT22;16482;51.046;4.498;2023-07-31T11:38:32;25.80;53.90
29539;DHT22;16482;51.046;4.498;2023-07-31T11:41:01;25.80;53.90
29539;DHT22;16482;51.046;4.498;2023-07-31T11:43:31;25.70;53.80
29539;DHT22;16482;51.046;4.498;2023-07-31T11:45:58;25.70;53.80
29539;DHT22;16482;51.046;4.498;2023-07-31T11:48:34;25.70;53.90
29539;DHT22;16482;51.046;4.498;2023-07-31T11:51:04;25.70;53.90
29539;DHT22;16482;51.046;4.498;2023-07-31T11:53:47;25.70;53.90
29539;DHT22;16482;51.046;4.498;2023-07-31T11:56:17;25.70;53.90
29539;DHT22;16482;51.046;4.498;2023-07-31T11:58:48;25.70;53.90
29539;DHT22;16482;51.046;4.498;2023-07-31T12:01:16;25.70;53.80
29539;DHT22;16482;51.046;4.498;2023-07-31T12:03:43;25.70;53.90
29539;DHT22;16482;51.046;4.498;2023-07-31T12:06:09;25.70;54.00
29539;DHT22;16482;51.046;4.498;2023-07-31T12:08:36;25.70;54.00
29539;DHT22;16482;51.046;4.498;2023-07-31T12:11:08;25.70;53.90
29539;DHT22;16482;51.046;4.498;2023-07-31T12:13:37;25.70;54.00
29539;DHT22;16482;51.046;4.498;2023-07-31T12:16:05;25.70;53.90
29539;DHT22;16482;51.046;4.498;2023-07-31T12:18:35;25.70;53.90
29539;DHT22;16482;51.046;4.498;2023-07-31T12:21:08;25.70;53.90
29539;DHT22;16482;51.046;4.498;2023-07-31T12:23:36;25.70;53.80
29539;DHT22;16482;51.046;4.498;2023-07-31T12:26:14;25.80;53.80
29539;DHT22;16482;51.046;4.498;2023-07-31T12:28:50;25.70;53.70
29539;DHT22;16482;51.046;4.498;2023-07-31T12:31:21;25.80;53.80
29539;DHT22;16482;51.046;4.498;2023-07-31T12:33:51;25.70;53.80
29539;DHT22;16482;51.046;4.498;2023-07-31T12:36:21;25.70;53.80
29539;DHT22;16482;51.046;4.498;2023-07-31T12:38:47;25.70;53.80
29539;DHT22;16482;51.046;4.498;2023-07-31T12:41:13;25.70;53.70
29539;DHT22;16482;51.046;4.498;2023-07-31T12:43:40;25.70;53.80
29539;DHT22;16482;51.046;4.498;2023-07-31T12:46:07;25.70;53.80
29539;DHT22;16482;51.046;4.498;2023-07-31T12:48:33;25.70;53.70
29539;DHT22;16482;51.046;4.498;2023-07-31T12:51:00;25.70;53.70
29539;DHT22;16482;51.046;4.498;2023-07-31T12:53:26;25.70;53.70
29539;DHT22;16482;51.046;4.498;2023-07-31T12:55:52;25.70;53.70
29539;DHT22;16482;51.046;4.498;2023-07-31T12:58:18;25.70;53.70
29539;DHT22;16482;51.046;4.498;2023-07-31T13:00:44;25.70;53.70
29539;DHT22;16482;51.046;4.498;2023-07-31T13:03:10;25.70;53.80
29539;DHT22;16482;51.046;4.498;2023-07-31T13:05:36;25.70;53.90
29539;DHT22;16482;51.046;4.498;2023-07-31T13:08:02;25.70;54.00
29539;DHT22;16482;51.046;4.498;2023-07-31T13:10:28;25.70;54.10
29539;DHT22;16482;51.046;4.498;2023-07-31T13:12:55;25.60;54.10
29539;DHT22;16482;51.046;4.498;2023-07-31T13:15:21;25.60;54.10
29539;DHT22;16482;51.046;4.498;2023-07-31T13:17:47;25.70;54.20
29539;DHT22;16482;51.046;4.498;2023-07-31T13:20:15;25.70;54.30
29539;DHT22;16482;51.046;4.498;2023-07-31T13:22:41;25.60;54.30
29539;DHT22;16482;51.046;4.498;2023-07-31T13:25:08;25.60;54.90
29539;DHT22;16482;51.046;4.498;2023-07-31T13:27:35;25.60;54.10
29539;DHT22;16482;51.046;4.498;2023-07-31T13:30:02;25.60;54.30
29539;DHT22;16482;51.046;4.498;2023-07-31T13:32:28;25.60;54.20
29539;DHT22;16482;51.046;4.498;2023-07-31T13:34:54;25.60;54.30
29539;DHT22;16482;51.046;4.498;2023-07-31T13:37:20;25.60;54.50
29539;DHT22;16482;51.046;4.498;2023-07-31T13:39:46;25.60;54.60
29539;DHT22;16482;51.046;4.498;2023-07-31T13:42:12;25.60;54.80
29539;DHT22;16482;51.046;4.498;2023-07-31T13:44:41;25.60;54.80
29539;DHT22;16482;51.046;4.498;2023-07-31T13:47:08;25.60;54.90
29539;DHT22;16482;51.046;4.498;2023-07-31T13:49:35;25.60;55.00
29539;DHT22;16482;51.046;4.498;2023-07-31T13:52:01;25.60;55.00
29539;DHT22;16482;51.046;4.498;2023-07-31T13:54:27;25.60;55.10
29539;DHT22;16482;51.046;4.498;2023-07-31T13:56:53;25.60;55.40
29539;DHT22;16482;51.046;4.498;2023-07-31T13:59:20;25.50;55.20
29539;DHT22;16482;51.046;4.498;2023-07-31T14:01:46;25.50;55.20
29539;DHT22;16482;51.046;4.498;2023-07-31T14:04:13;25.50;55.20
29539;DHT22;16482;51.046;4.498;2023-07-31T14:06:39;25.50;55.30
29539;DHT22;16482;51.046;4.498;2023-07-31T14:09:05;25.50;55.40
29539;DHT22;16482;51.046;4.498;2023-07-31T14:11:31;25.60;55.40
29539;DHT22;16482;51.046;4.498;2023-07-31T14:13:58;25.50;55.40
29539;DHT22;16482;51.046;4.498;2023-07-31T14:16:24;25.50;55.40
29539;DHT22;16482;51.046;4.498;2023-07-31T14:18:50;25.50;55.40
29539;DHT22;16482;51.046;4.498;2023-07-31T14:21:16;25.50;55.40
29539;DHT22;16482;51.046;4.498;2023-07-31T14:23:44;25.50;55.50
29539;DHT22;16482;51.046;4.498;2023-07-31T14:26:10;25.50;55.60
29539;DHT22;16482;51.046;4.498;2023-07-31T14:28:36;25.50;55.70
29539;DHT22;16482;51.046;4.498;2023-07-31T14:31:05;25.50;55.80
29539;DHT22;16482;51.046;4.498;2023-07-31T14:33:31;25.50;55.90
29539;DHT22;16482;51.046;4.498;2023-07-31T14:35:57;25.40;55.80
29539;DHT22;16482;51.046;4.498;2023-07-31T14:38:23;25.50;56.00
29539;DHT22;16482;51.046;4.498;2023-07-31T14:40:49;25.50;56.00
29539;DHT22;16482;51.046;4.498;2023-07-31T14:43:15;25.50;56.00
29539;DHT22;16482;51.046;4.498;2023-07-31T14:45:41;25.50;56.00
29539;DHT22;16482;51.046;4.498;2023-07-31T14:48:07;25.50;56.00
29539;DHT22;16482;51.046;4.498;2023-07-31T14:50:33;25.50;56.10
29539;DHT22;16482;51.046;4.498;2023-07-31T14:52:59;25.50;56.20
29539;DHT22;16482;51.046;4.498;2023-07-31T14:55:25;25.40;56.10
29539;DHT22;16482;51.046;4.498;2023-07-31T14:57:51;25.50;56.20
29539;DHT22;16482;51.046;4.498;2023-07-31T15:00:17;25.50;56.20
29539;DHT22;16482;51.046;4.498;2023-07-31T15:02:45;25.40;56.10
29539;DHT22;16482;51.046;4.498;2023-07-31T15:05:11;25.50;56.20
29539;DHT22;16482;51.046;4.498;2023-07-31T15:07:37;25.50;56.20
29539;DHT22;16482;51.046;4.498;2023-07-31T15:10:04;25.50;56.20
29539;DHT22;16482;51.046;4.498;2023-07-31T15:12:31;25.40;56.20
29539;DHT22;16482;51.046;4.498;2023-07-31T15:14:57;25.50;56.30
29539;DHT22;16482;51.046;4.498;2023-07-31T15:17:23;25.40;56.20
29539;DHT22;16482;51.046;4.498;2023-07-31T15:19:49;25.40;56.20
29539;DHT22;16482;51.046;4.498;2023-07-31T15:22:15;25.40;56.20
29539;DHT22;16482;51.046;4.498;2023-07-31T15:24:41;25.50;56.30
29539;DHT22;16482;51.046;4.498;2023-07-31T15:27:07;25.40;56.30
29539;DHT22;16482;51.046;4.498;2023-07-31T15:29:34;25.50;56.30
29539;DHT22;16482;51.046;4.498;2023-07-31T15:32:04;25.50;56.30
29539;DHT22;16482;51.046;4.498;2023-07-31T15:34:30;25.50;56.30
29539;DHT22;16482;51.046;4.498;2023-07-31T15:36:56;25.50;56.30
29539;DHT22;16482;51.046;4.498;2023-07-31T15:39:27;25.50;56.30
29539;DHT22;16482;51.046;4.498;2023-07-31T15:41:56;25.50;56.20
29539;DHT22;16482;51.046;4.498;2023-07-31T15:44:27;25.50;56.40